Terminal Aerodrome Forecast
Issued by NWS

Home | Current Version | Previous Version | Text Only | Print | Product List | Glossary On
Versions: 1 2 3 4 5 6 7 8 9 10 11 12 13 14 15 16 17 18
000
FTUS46 KLOX 212300
TAFSBA
TAF
KSBA 212331Z 2200/2224 25008KT P6SM SKC
     FM220300 VRB03KT P6SM SKC
     FM221100 10005KT 3SM BR BKN007
     FM221600 13005KT P6SM SCT009
     FM221800 21007KT P6SM SKC
     FM222100 25009KT P6SM SKC=

USA.gov is the U.S. government's official web portal to all federal, state and local government web resources and services.